»·PEaware :: N4657 KSAC-KTVL

N4657 :: KSAC-KTVL

FLIGHT INFORMATION

Flight Status: Arrived
Operator: Privately registered:
United States
More flights under this callsign
Pilot: Gavin F. (2831)
Aircraft: PILATUS PC-12 EAGLE
(PC12)
More flights by this aircraft type
Origin: KSAC Sacramento Executive
United States
Destination: KTVL Lake Tahoe
United States
More flights between these airports :: More routes between these airports
Route: SWR
File this flight plan on PilotEdge
Remarks:
Altitude:
(Current/Filed)
15,000ft
Speed:
(Current/Filed)
200kts
Departed: 18-Jun-18 03:37 PM
Arrived: 18-Jun-18 04:11 PM
Distance/Time
Traveled:
74nm/0:34
Distance/Time
To Go:
Arrived

Flight Plot

Page will automatically refresh every two minutes.

Flight plan parsing failed; only flown route is shown


Map Options




Map Legend


Flown Route
Filed Route
Departure Airport
Arrival Airport
Navaid (VOR, NDB)
Fix

Horizontal Profiles

Position Reports

Time Latitude Longitude Heading Altitude Ground
Speed
18-Jun-18 15:19 38.513413 -121.497414 28 27ft 0kts
18-Jun-18 15:20 38.513413 -121.497414 28 27ft 0kts
18-Jun-18 15:21 38.513413 -121.497414 28 27ft 0kts
18-Jun-18 15:22 38.513413 -121.497414 28 27ft 0kts
18-Jun-18 15:23 38.513413 -121.497414 28 27ft 0kts
18-Jun-18 15:24 38.513413 -121.497414 28 27ft 0kts
18-Jun-18 15:25 38.513413 -121.497414 28 27ft 0kts
18-Jun-18 15:26 38.513413 -121.497414 28 27ft 0kts
18-Jun-18 15:27 38.513413 -121.497414 28 27ft 0kts
18-Jun-18 15:28 38.513413 -121.497414 28 27ft 0kts
18-Jun-18 15:29 38.513413 -121.497414 28 27ft 0kts
18-Jun-18 15:30 38.513413 -121.497414 28 27ft 0kts
18-Jun-18 15:31 38.513158 -121.496988 149 27ft 2kts
18-Jun-18 15:32 38.510801 -121.497773 218 27ft 12kts
18-Jun-18 15:33 38.508666 -121.499557 207 27ft 18kts
18-Jun-18 15:34 38.506263 -121.501132 161 27ft 0kts
18-Jun-18 15:35 38.506263 -121.501132 161 27ft 0kts
18-Jun-18 15:36 38.506263 -121.501132 161 27ft 0kts
18-Jun-18 15:37 38.515191 -121.492212 34 236ft 112kts
18-Jun-18 15:38 38.524041 -121.452374 99 1972ft 154kts
18-Jun-18 15:39 38.521119 -121.398522 43 4114ft 146kts
18-Jun-18 15:40 38.546946 -121.359904 54 6262ft 142kts
18-Jun-18 15:41 38.570320 -121.319399 49 8242ft 144kts
18-Jun-18 15:42 38.593650 -121.279789 47 10320ft 137kts
18-Jun-18 15:43 38.616787 -121.240654 47 12186ft 142kts
18-Jun-18 15:44 38.640801 -121.199752 45 13951ft 148kts
18-Jun-18 15:45 38.667476 -121.154695 46 15063ft 191kts
18-Jun-18 15:46 38.704378 -121.091612 48 15058ft 239kts
18-Jun-18 15:47 38.740903 -121.029157 48 15055ft 251kts
18-Jun-18 15:48 38.763210 -120.991021 48 15070ft 253kts
18-Jun-18 15:49 38.805342 -120.918935 48 15095ft 255kts
18-Jun-18 15:50 38.847902 -120.845956 48 15055ft 256kts
18-Jun-18 15:51 38.890710 -120.772394 48 14950ft 256kts
18-Jun-18 15:52 38.933096 -120.699438 48 14974ft 255kts
18-Jun-18 15:53 38.975244 -120.626664 48 14980ft 254kts
18-Jun-18 15:54 39.017166 -120.553821 48 14980ft 255kts
18-Jun-18 15:55 39.059238 -120.480844 48 14979ft 254kts
18-Jun-18 15:56 39.099615 -120.406205 60 14979ft 258kts
18-Jun-18 15:57 39.128163 -120.324611 62 14972ft 258kts
18-Jun-18 15:58 39.156103 -120.242978 65 14981ft 234kts
18-Jun-18 15:59 39.181319 -120.170486 64 14981ft 209kts
18-Jun-18 16:00 39.203604 -120.106590 64 14066ft 191kts
18-Jun-18 16:01 39.225267 -120.044360 65 12817ft 189kts
18-Jun-18 16:02 39.246531 -119.983321 65 11937ft 192kts
18-Jun-18 16:03 39.225053 -119.932990 191 11800ft 190kts
18-Jun-18 16:04 39.173488 -119.949466 183 10909ft 195kts
18-Jun-18 16:05 39.120408 -119.954588 181 9959ft 191kts
18-Jun-18 16:06 39.073383 -119.966616 182 9417ft 136kts
18-Jun-18 16:07 39.033322 -119.975201 182 8963ft 146kts
18-Jun-18 16:08 38.994241 -119.979084 179 8070ft 130kts
18-Jun-18 16:09 38.956252 -119.979106 178 7793ft 146kts
18-Jun-18 16:10 38.917128 -119.988436 192 6538ft 128kts
18-Jun-18 16:11 38.894511 -119.995007 200 6268ft 14kts
18-Jun-18 16:12 38.892512 -119.996560 287 6268ft 4kts
18-Jun-18 16:13 38.893724 -119.996930 11 6268ft 6kts
18-Jun-18 16:14 38.892160 -119.997754 191 6268ft 7kts
18-Jun-18 16:15 38.892339 -119.998114 33 6268ft 0kts
18-Jun-18 16:16 38.892339 -119.998114 33 6268ft 0kts
18-Jun-18 16:17 38.892339 -119.998114 33 6268ft 0kts
18-Jun-18 16:18 38.892339 -119.998114 33 6268ft 0kts
18-Jun-18 16:19 38.892339 -119.998114 33 6268ft 0kts
18-Jun-18 16:20 38.892339 -119.998114 33 6268ft 0kts
18-Jun-18 16:21 38.892339 -119.998114 33 6268ft 0kts
18-Jun-18 16:22 38.892339 -119.998114 33 6268ft 0kts
18-Jun-18 16:23 38.892339 -119.998114 33 6268ft 0kts
18-Jun-18 16:24 38.892339 -119.998114 33 6268ft 0kts
18-Jun-18 16:25 38.892339 -119.998114 33 6268ft 0kts
18-Jun-18 16:26 38.892339 -119.998114 33 6268ft 0kts

Navigation Log

Ident Type
Flight plan parsing failed, navigation log unavailable